Time;durP1;ratioP1;P1;durP2;ratioP2;P2;SDS_P1;SDS_P2;PMS_P1;PMS_P2;Temp;Humidity;BMP_temperature;BMP_pressure;BME280_temperature;BME280_humidity;BME280_pressure;Samples;Min_cycle;Max_cycle;Signal;HPM_P1;HPM_P2
2022/09/07 00:00:21;;;;;;;10.90;3.60;;;;;;;13.49;56.61;100539.22;2062198;86;28689;-66
2022/09/07 00:03:25;;;;;;;8.08;3.65;;;;;;;13.46;56.57;100545.66;2027115;87;27752;-65
2022/09/07 00:06:26;;;;;;;7.70;3.47;;;;;;;13.42;56.79;100546.79;2061927;86;33029;-67
2022/09/07 00:09:28;;;;;;;8.95;3.67;;;;;;;13.40;56.97;100546.47;2027081;87;29390;-67
2022/09/07 00:12:29;;;;;;;10.48;3.12;;;;;;;13.38;56.83;100550.11;2062185;86;27682;-66
2022/09/07 00:15:31;;;;;;;6.62;3.37;;;;;;;13.36;56.88;100546.64;2026966;87;28897;-66
2022/09/07 00:18:33;;;;;;;6.83;4.20;;;;;;;13.35;57.07;100549.42;2062023;86;31148;-65
2022/09/07 00:21:36;;;;;;;5.72;3.52;;;;;;;13.34;57.26;100551.73;2051672;86;33048;-67
2022/09/07 00:24:38;;;;;;;5.92;3.62;;;;;;;13.33;57.45;100547.30;2046748;87;29566;-66
2022/09/07 00:27:39;;;;;;;7.53;3.15;;;;;;;13.32;57.47;100541.03;2046594;86;27735;-67
2022/09/07 00:30:41;;;;;;;7.60;3.47;;;;;;;13.35;57.34;100544.05;2046644;87;28708;-67
2022/09/07 00:33:45;;;;;;;7.47;3.52;;;;;;;13.36;57.55;100546.64;2023836;88;33142;-67
2022/09/07 00:36:46;;;;;;;9.40;3.52;;;;;;;13.41;57.75;100546.89;2046894;87;33004;-69
2022/09/07 00:39:48;;;;;;;7.10;3.98;;;;;;;13.43;57.73;100536.91;2046859;87;29731;-68
2022/09/07 00:42:50;;;;;;;7.40;3.80;;;;;;;13.44;57.74;100530.08;2046614;87;27711;-67
2022/09/07 00:45:51;;;;;;;6.22;4.00;;;;;;;13.45;57.95;100530.96;2046626;87;28627;-67
2022/09/07 00:49:13;;;;;;;5.30;3.77;;;;;;;13.45;57.92;100529.62;2046940;87;31074;-67
2022/09/07 00:52:16;;;;;;;8.00;3.70;;;;;;;13.46;57.72;100533.55;2046484;87;35126;-66
2022/09/07 00:55:18;;;;;;;8.85;3.58;;;;;;;13.47;57.88;100537.98;2047094;87;29971;-67
2022/09/07 00:58:21;;;;;;;9.98;4.33;;;;;;;13.47;57.83;100537.12;2031718;87;28171;-65
2022/09/07 01:01:23;;;;;;;12.82;4.15;;;;;;;13.47;58.06;100536.63;2046855;87;28237;-65
2022/09/07 01:04:25;;;;;;;11.30;3.80;;;;;;;13.46;57.97;100528.17;2046898;87;31876;-66
2022/09/07 01:07:26;;;;;;;6.50;3.37;;;;;;;13.45;57.97;100526.43;2046476;86;35157;-65
2022/09/07 01:10:32;;;;;;;7.83;4.17;;;;;;;13.44;58.03;100532.77;2046935;87;29687;-66
2022/09/07 01:13:34;;;;;;;8.40;3.42;;;;;;;13.43;58.07;100534.22;2046616;87;27632;-65
2022/09/07 01:17:18;;;;;;;13.13;4.03;;;;;;;13.42;58.02;100527.09;2046456;87;28700;-66
2022/09/07 01:20:28;;;;;;;8.03;3.62;;;;;;;13.40;57.99;100523.59;2046470;86;33243;-66
2022/09/07 01:23:53;;;;;;;6.45;3.70;;;;;;;13.34;58.03;100512.71;2018352;87;33194;-66
2022/09/07 01:27:33;;;;;;;6.83;3.73;;;;;;;13.31;58.06;100516.91;2018395;88;29760;-66
2022/09/07 01:30:38;;;;;;;8.50;3.20;;;;;;;13.24;58.12;100517.75;2018421;88;27880;-62
2022/09/07 01:34:00;;;;;;;6.12;3.90;;;;;;;13.20;58.14;100521.56;2018605;88;33435;-61
2022/09/07 01:37:29;;;;;;;5.03;3.65;;;;;;;13.15;58.05;100515.11;2010906;88;33106;-67
2022/09/07 01:40:45;;;;;;;7.10;3.25;;;;;;;13.13;58.13;100510.78;1964012;90;33149;-65
2022/09/07 01:44:10;;;;;;;6.45;4.03;;;;;;;13.07;58.59;100509.31;1963670;90;29797;-63
2022/09/07 01:47:33;;;;;;;6.33;3.73;;;;;;;13.05;58.34;100513.91;1933761;92;27736;-65
2022/09/07 01:50:44;;;;;;;7.08;3.70;;;;;;;13.03;58.50;100521.19;1932892;92;28869;-68
2022/09/07 01:53:56;;;;;;;7.35;3.87;;;;;;;13.02;58.46;100510.89;1933402;92;31065;-66
2022/09/07 01:57:02;;;;;;;12.15;3.42;;;;;;;13.01;58.54;100511.84;1933406;92;33729;-66
2022/09/07 02:00:11;;;;;;;9.13;4.33;;;;;;;13.00;58.47;100508.77;1941924;90;29779;-67
2022/09/07 02:03:19;;;;;;;8.23;4.30;;;;;;;13.00;58.45;100507.42;1964051;90;27632;-64
2022/09/07 02:06:35;;;;;;;6.95;3.50;;;;;;;13.01;58.69;100506.47;1964010;90;29411;-67
2022/09/07 02:10:05;;;;;;;7.22;4.00;;;;;;;13.01;58.66;100500.23;1987847;89;31058;-64
2022/09/07 02:13:23;;;;;;;7.15;3.55;;;;;;;13.04;58.47;100504.10;1994753;89;33002;-66
2022/09/07 02:16:29;;;;;;;7.42;3.67;;;;;;;13.05;58.37;100495.08;2007855;87;29737;-66
2022/09/07 02:19:36;;;;;;;9.88;4.30;;;;;;;13.06;58.27;100495.48;2023849;88;27665;-64
2022/09/07 02:22:42;;;;;;;8.28;3.65;;;;;;;13.05;58.34;100495.94;2047815;86;28669;-65
2022/09/07 02:25:53;;;;;;;6.55;3.37;;;;;;;13.05;58.29;100493.25;2039588;86;31100;-64
2022/09/07 02:28:55;;;;;;;7.60;3.47;;;;;;;13.09;58.24;100493.93;2053803;86;33046;-62
2022/09/07 02:31:57;;;;;;;10.25;3.77;;;;;;;13.10;58.16;100492.98;2056381;86;29717;-66
2022/09/07 02:34:58;;;;;;;7.05;3.37;;;;;;;13.14;58.14;100500.41;2053543;86;27628;-66
2022/09/07 02:38:04;;;;;;;5.62;3.47;;;;;;;13.16;58.02;100496.67;2056528;86;29374;-65
2022/09/07 02:41:25;;;;;;;5.50;3.85;;;;;;;13.19;57.98;100501.88;2056454;86;33243;-66
2022/09/07 02:44:33;;;;;;;5.35;3.50;;;;;;;13.21;57.75;100501.78;2056407;86;33094;-64
2022/09/07 02:48:10;;;;;;;4.05;3.17;;;;;;;13.23;57.66;100502.56;2056799;86;30325;-66
2022/09/07 02:51:41;;;;;;;8.83;3.90;;;;;;;13.26;57.47;100490.28;2057189;86;27585;-69
2022/09/07 02:54:54;;;;;;;7.90;3.30;;;;;;;13.25;57.43;100481.82;2056470;86;29118;-66
2022/09/07 02:58:24;;;;;;;8.33;3.65;;;;;;;13.20;57.23;100484.78;2056989;86;30884;-67
2022/09/07 03:01:56;;;;;;;6.20;3.67;;;;;;;13.18;57.17;100488.50;2057051;86;33382;-67
2022/09/07 03:05:13;;;;;;;4.05;2.80;;;;;;;13.17;57.15;100486.30;2056772;86;53832;-66
2022/09/07 03:08:25;;;;;;;8.88;2.85;;;;;;;13.14;57.02;100478.89;2052697;86;27617;-67
2022/09/07 03:11:27;;;;;;;8.55;2.77;;;;;;;13.13;57.02;100483.89;2056937;86;28687;-67
2022/09/07 03:14:32;;;;;;;8.43;2.98;;;;;;;13.08;56.94;100477.40;2054116;86;32180;-64
2022/09/07 03:17:32;;;;;;;5.20;2.77;;;;;;;13.04;56.90;100486.12;2056539;86;33597;-66
2022/09/07 03:20:33;;;;;;;5.17;3.00;;;;;;;13.02;56.84;100481.31;2056883;86;29423;-65
2022/09/07 03:23:36;;;;;;;6.28;3.10;;;;;;;12.99;56.72;100476.59;2048131;86;27710;-67
2022/09/07 03:26:42;;;;;;;5.62;2.72;;;;;;;12.96;56.69;100484.83;2048303;86;29066;-66
2022/09/07 03:29:43;;;;;;;6.70;3.05;;;;;;;12.93;56.63;100483.19;2048815;86;31959;-65
2022/09/07 03:32:44;;;;;;;6.58;3.83;;;;;;;12.91;56.60;100483.27;2048288;86;33332;-66
2022/09/07 03:35:58;;;;;;;6.55;3.27;;;;;;;12.89;56.64;100485.20;2048066;86;27655;-64
2022/09/07 03:39:02;;;;;;;4.85;2.92;;;;;;;12.87;56.62;100476.80;2048345;86;27713;-63
2022/09/07 03:42:04;;;;;;;9.15;2.60;;;;;;;12.82;56.60;100478.91;2048466;86;29753;-62
2022/09/07 03:45:08;;;;;;;9.30;3.00;;;;;;;12.79;56.65;100487.99;2048120;86;31440;-64
2022/09/07 03:48:09;;;;;;;9.30;3.25;;;;;;;12.76;56.65;100486.35;2048328;86;33116;-64
2022/09/07 03:51:11;;;;;;;5.22;3.02;;;;;;;12.75;56.64;100483.73;2048496;86;30588;-63
2022/09/07 03:54:13;;;;;;;5.53;2.80;;;;;;;12.74;56.69;100486.91;2049005;86;27680;-61
2022/09/07 03:57:14;;;;;;;5.10;2.60;;;;;;;12.73;56.69;100481.14;2048350;86;29873;-61
2022/09/07 04:00:16;;;;;;;9.95;2.90;;;;;;;12.71;56.69;100485.73;2048180;86;32431;-65
2022/09/07 04:03:17;;;;;;;8.50;3.33;;;;;;;12.68;56.79;100481.02;2048264;86;33375;-59
2022/09/07 04:06:19;;;;;;;8.13;3.17;;;;;;;12.61;56.66;100465.22;2048428;86;30041;-68
2022/09/07 04:09:20;;;;;;;5.42;3.20;;;;;;;12.59;56.79;100471.15;2048172;86;27834;-60
2022/09/07 04:12:21;;;;;;;5.72;3.00;;;;;;;12.56;56.80;100472.69;2048526;86;29042;-62
2022/09/07 04:15:22;;;;;;;8.80;2.72;;;;;;;12.49;56.79;100465.91;2048517;86;30792;-64
2022/09/07 04:18:24;;;;;;;5.22;3.52;;;;;;;12.43;56.86;100466.23;2048416;86;33361;-63
2022/09/07 04:21:28;;;;;;;4.83;2.70;;;;;;;12.40;56.94;100470.45;2045372;86;29664;-67
2022/09/07 04:24:29;;;;;;;5.55;2.83;;;;;;;12.37;56.93;100463.41;2030021;87;27639;-64
2022/09/07 04:27:31;;;;;;;5.15;3.05;;;;;;;12.29;56.98;100455.77;2065151;86;28595;-61
2022/09/07 04:30:34;;;;;;;4.65;2.72;;;;;;;12.25;56.89;100455.53;2065069;86;32189;-64
2022/09/07 04:33:36;;;;;;;6.30;2.55;;;;;;;12.22;57.08;100465.13;2064889;86;32964;-64
2022/09/07 04:36:38;;;;;;;4.25;2.90;;;;;;;12.16;57.06;100464.95;2064631;86;29696;-61
2022/09/07 04:39:42;;;;;;;4.87;3.05;;;;;;;12.15;57.15;100463.25;2064736;86;27627;-65
2022/09/07 04:42:43;;;;;;;6.43;2.90;;;;;;;12.15;57.17;100469.08;2064881;86;28258;-63
2022/09/07 04:45:44;;;;;;;11.83;3.05;;;;;;;12.12;57.16;100461.18;2064541;86;30883;-63
2022/09/07 04:48:50;;;;;;;3.75;2.62;;;;;;;12.11;57.20;100462.12;2064664;86;34108;-64
2022/09/07 04:51:52;;;;;;;5.92;2.92;;;;;;;12.08;57.13;100459.63;2064267;86;31770;-61
2022/09/07 04:54:53;;;;;;;9.15;2.58;;;;;;;12.09;57.14;100455.97;2064902;86;27621;-62
2022/09/07 04:57:54;;;;;;;6.05;3.02;;;;;;;12.09;57.19;100452.83;2064738;86;29034;-61
2022/09/07 05:01:03;;;;;;;4.17;2.67;;;;;;;12.13;57.25;100457.09;2064378;86;30875;-63
2022/09/07 05:04:04;;;;;;;6.70;2.65;;;;;;;12.16;57.22;100459.58;2064420;86;32444;-62
2022/09/07 05:07:06;;;;;;;6.85;2.70;;;;;;;12.19;57.17;100467.97;2063854;86;29984;-66
2022/09/07 05:10:08;;;;;;;6.05;2.47;;;;;;;12.24;57.18;100471.28;2065100;86;27739;-65
2022/09/07 05:13:09;;;;;;;7.78;3.02;;;;;;;12.29;57.13;100473.23;2065009;86;29057;-63
2022/09/07 05:16:16;;;;;;;6.25;2.80;;;;;;;12.37;57.00;100467.44;2065001;86;32181;-63
2022/09/07 05:19:17;;;;;;;7.67;3.22;;;;;;;12.44;56.98;100451.84;2064572;86;33047;-63
2022/09/07 05:22:19;;;;;;;5.95;2.35;;;;;;;12.54;56.84;100452.20;2061731;86;30723;-62
2022/09/07 05:25:20;;;;;;;11.05;2.77;;;;;;;12.63;56.88;100448.14;2064466;86;27689;-61
2022/09/07 05:28:22;;;;;;;5.25;2.42;;;;;;;12.70;56.58;100447.70;2064314;86;28690;-63
2022/09/07 05:31:23;;;;;;;6.22;2.40;;;;;;;12.78;56.37;100449.11;2064404;86;32215;-61
2022/09/07 05:34:25;;;;;;;10.35;2.52;;;;;;;12.82;56.40;100445.30;2064477;86;33022;-66
2022/09/07 05:37:26;;;;;;;9.63;2.60;;;;;;;12.85;56.18;100459.43;2064895;86;29631;-61
2022/09/07 05:40:31;;;;;;;4.47;2.72;;;;;;;12.90;56.06;100460.05;2057708;86;27635;-61
2022/09/07 05:43:32;;;;;;;;;;;;;;;12.95;55.90;100463.81;2060014;86;30072;-62
2022/09/07 05:46:34;;;;;;;7.05;2.30;;;;;;;13.00;56.00;100453.63;2058121;86;31396;-62
2022/09/07 05:49:37;;;;;;;5.25;2.70;;;;;;;13.06;55.86;100451.95;2057705;86;33545;-64
2022/09/07 05:52:38;;;;;;;3.72;2.40;;;;;;;13.13;55.57;100454.30;2059444;86;29764;-60
2022/09/07 05:55:39;;;;;;;7.30;2.65;;;;;;;13.19;55.55;100457.95;2064567;86;27530;-61
2022/09/07 05:58:41;;;;;;;4.72;2.17;;;;;;;13.27;55.72;100470.50;2064764;86;28447;-65
2022/09/07 06:01:45;;;;;;;7.30;2.65;;;;;;;13.38;55.21;100474.77;2064420;86;31742;-68
2022/09/07 06:04:46;;;;;;;7.10;2.40;;;;;;;13.50;55.32;100470.52;2064467;86;34267;-60
2022/09/07 06:07:47;;;;;;;13.05;2.80;;;;;;;13.64;55.06;100463.44;2064465;86;30855;-65
2022/09/07 06:10:48;;;;;;;5.92;2.52;;;;;;;13.78;54.98;100449.16;2064720;86;27677;-62
2022/09/07 06:13:50;;;;;;;9.20;2.22;;;;;;;13.96;54.86;100448.50;2065198;86;29094;-64
2022/09/07 06:16:52;;;;;;;8.63;2.87;;;;;;;14.11;54.74;100448.04;2064578;86;32069;-60
2022/09/07 06:19:53;;;;;;;3.55;2.40;;;;;;;14.32;55.04;100453.91;2064464;86;33367;-64
2022/09/07 06:22:55;;;;;;;5.28;2.67;;;;;;;14.60;54.97;100456.19;2055753;86;30171;-64
2022/09/07 06:25:56;;;;;;;12.73;3.02;;;;;;;14.85;54.03;100460.05;2043455;87;28254;-63
2022/09/07 06:28:57;;;;;;;5.75;2.75;;;;;;;15.12;54.08;100467.28;2043859;87;28624;-67
2022/09/07 06:31:58;;;;;;;10.15;3.02;;;;;;;15.41;54.09;100473.44;2043714;87;31439;-66
2022/09/07 06:34:59;;;;;;;6.47;2.77;;;;;;;15.72;53.45;100468.65;2044160;87;33331;-70
2022/09/07 06:38:01;;;;;;;7.12;2.87;;;;;;;16.00;53.14;100471.31;2043909;87;30063;-66
2022/09/07 06:41:07;;;;;;;9.28;3.17;;;;;;;16.29;52.70;100462.52;2044204;87;27720;-65
2022/09/07 06:44:10;;;;;;;8.95;3.47;;;;;;;16.62;52.27;100467.82;2021184;87;28693;-64
2022/09/07 06:47:11;;;;;;;6.40;3.12;;;;;;;16.90;51.07;100459.50;2027362;87;31210;-67
2022/09/07 06:50:13;;;;;;;7.42;3.02;;;;;;;17.04;50.42;100458.05;2044063;87;33323;-67
2022/09/07 06:53:16;;;;;;;9.28;3.10;;;;;;;17.33;50.57;100454.10;2043678;87;30902;-64
2022/09/07 06:56:18;;;;;;;6.35;3.50;;;;;;;17.68;49.88;100450.55;2028363;86;27767;-63
2022/09/07 06:59:19;;;;;;;7.20;3.15;;;;;;;17.98;49.58;100454.58;2004331;88;29017;-65
2022/09/07 07:02:20;;;;;;;10.15;3.27;;;;;;;18.30;49.04;100456.11;2004074;88;31424;-63
2022/09/07 07:05:22;;;;;;;7.80;3.40;;;;;;;18.57;48.35;100445.37;2003877;88;33411;-65
2022/09/07 07:08:25;;;;;;;5.62;3.12;;;;;;;18.76;48.23;100443.87;2004108;87;29641;-67
2022/09/07 07:11:27;;;;;;;7.70;3.52;;;;;;;18.98;48.02;100447.94;2004434;88;27611;-69
2022/09/07 07:14:28;;;;;;;7.60;3.27;;;;;;;19.23;47.60;100440.95;2003658;88;29587;-71
2022/09/07 07:17:30;;;;;;;8.18;3.52;;;;;;;19.43;47.15;100444.69;1987872;88;33240;-73
2022/09/07 07:20:34;;;;;;;7.67;3.02;;;;;;;19.68;46.88;100437.17;2003917;88;34286;-66
2022/09/07 07:23:35;;;;;;;7.03;3.57;;;;;;;19.89;46.18;100437.20;2030507;86;30381;-66
2022/09/07 07:26:39;;;;;;;9.13;3.52;;;;;;;20.08;46.29;100438.31;2043937;86;27735;-65
2022/09/07 07:29:40;;;;;;;7.10;2.90;;;;;;;20.26;45.66;100439.41;2043538;87;28708;-69
2022/09/07 07:32:42;;;;;;;7.55;3.08;;;;;;;20.46;45.59;100436.75;2043477;87;31064;-69
2022/09/07 07:35:44;;;;;;;11.75;3.58;;;;;;;20.69;45.12;100433.83;2043800;86;32894;-66
2022/09/07 07:38:51;;;;;;;7.72;3.42;;;;;;;20.93;45.00;100429.40;2043903;86;29549;-61
2022/09/07 07:41:52;;;;;;;10.90;3.42;;;;;;;21.13;43.73;100428.08;2044202;86;27663;-61
2022/09/07 07:44:54;;;;;;;7.92;2.95;;;;;;;21.09;43.93;100420.70;2043662;87;28612;-63
2022/09/07 07:47:55;;;;;;;6.12;3.70;;;;;;;21.31;43.61;100416.83;2043823;86;32234;-62
2022/09/07 07:51:01;;;;;;;8.53;3.42;;;;;;;21.64;43.67;100418.78;2037805;86;33353;-62
2022/09/07 07:54:03;;;;;;;9.63;3.70;;;;;;;21.98;43.21;100420.13;2055062;86;30000;-63
2022/09/07 07:57:05;;;;;;;6.35;3.20;;;;;;;22.22;43.65;100422.34;2055947;86;27743;-63
2022/09/07 08:00:08;;;;;;;10.15;3.50;;;;;;;22.51;42.55;100430.09;2055509;86;29049;-63
2022/09/07 08:03:10;;;;;;;8.03;3.52;;;;;;;22.59;42.65;100433.80;2055405;86;31033;-62
2022/09/07 08:06:18;;;;;;;11.83;3.95;;;;;;;22.73;42.16;100433.80;2055479;86;32933;-62
2022/09/07 08:09:19;;;;;;;12.05;4.08;;;;;;;22.98;41.63;100438.69;2055227;86;30568;-63
2022/09/07 08:12:20;;;;;;;8.15;4.00;;;;;;;23.08;41.44;100427.69;2021474;88;27621;-63
2022/09/07 08:15:22;;;;;;;8.68;4.03;;;;;;;23.25;41.15;100431.47;2055468;86;29026;-63
2022/09/07 08:18:24;;;;;;;7.50;4.55;;;;;;;23.33;40.63;100426.09;2021373;88;31920;-63
2022/09/07 08:21:25;;;;;;;7.45;3.70;;;;;;;23.37;40.18;100417.91;2055299;86;32838;-63
2022/09/07 08:24:26;;;;;;;8.35;4.20;;;;;;;23.42;40.34;100411.95;2061468;86;30374;-62
2022/09/07 08:27:27;;;;;;;6.03;4.08;;;;;;;23.58;40.99;100415.35;2064574;86;27651;-63
2022/09/07 08:30:32;;;;;;;8.65;4.25;;;;;;;23.70;40.26;100414.07;2027081;87;29286;-64
2022/09/07 08:33:40;;;;;;;11.83;3.87;;;;;;;23.82;40.79;100416.05;2061857;86;32258;-63
2022/09/07 08:36:39;;;;;;;7.55;4.17;;;;;;;23.97;40.46;100424.05;2025778;87;34234;-62
2022/09/07 08:39:42;;;;;;;10.08;4.40;;;;;;;23.80;40.03;100417.59;2061852;86;29847;-63
2022/09/07 08:43:15;;;;;;;7.42;4.03;;;;;;;23.65;39.81;100424.13;2062313;86;27695;-62
2022/09/07 08:46:43;;;;;;;8.88;3.87;;;;;;;23.46;39.90;100423.81;2062142;86;28991;-63
2022/09/07 08:50:05;;;;;;;14.20;4.03;;;;;;;23.32;40.47;100420.27;2044875;86;31933;-63
2022/09/07 08:53:15;;;;;;;12.47;3.58;;;;;;;23.15;40.67;100412.38;1930881;92;34396;-63
2022/09/07 08:56:36;;;;;;;10.00;4.83;;;;;;;23.06;40.79;100408.70;1930891;92;29663;-63
2022/09/07 08:59:48;;;;;;;10.03;4.17;;;;;;;22.96;40.97;100395.63;1970509;90;27661;-62
2022/09/07 09:02:50;;;;;;;9.00;4.35;;;;;;;22.84;40.52;100382.17;1911684;92;28700;-62
2022/09/07 09:06:06;;;;;;;7.85;3.83;;;;;;;22.80;40.83;100379.42;1970192;90;32227;-63
2022/09/07 09:09:34;;;;;;;10.00;4.30;;;;;;;22.74;40.59;100380.02;1931065;92;34235;-63
2022/09/07 09:13:21;;;;;;;6.25;4.03;;;;;;;22.67;41.07;100385.24;1970232;90;29792;-63
2022/09/07 09:16:43;;;;;;;9.05;4.35;;;;;;;22.65;41.14;100383.69;1777342;100;27703;-62
2022/09/07 09:20:26;;;;;;;12.05;3.90;;;;;;;22.56;41.26;100380.00;1777107;100;29160;-62
2022/09/07 09:23:40;;;;;;;7.58;3.80;;;;;;;22.51;41.25;100380.44;1736539;100;31503;-63
2022/09/07 09:26:45;;;;;;;13.68;4.85;;;;;;;22.47;41.51;100373.58;1786160;99;34224;-65
2022/09/07 09:29:47;;;;;;;7.78;4.10;;;;;;;22.44;41.74;100368.42;1808675;98;29769;-65
2022/09/07 09:32:51;;;;;;;7.58;4.05;;;;;;;22.42;41.66;100369.08;1814173;97;27853;-65
2022/09/07 09:35:55;;;;;;;;;;;;;;;22.40;41.63;100371.94;1844476;96;28663;-65
2022/09/07 09:38:56;;;;;;;9.50;4.58;;;;;;;22.43;42.03;100379.83;1841975;96;32313;-63
2022/09/07 09:42:20;;;;;;;16.80;4.72;;;;;;;22.40;42.05;100376.52;1842005;96;33345;-65
2022/09/07 09:45:22;;;;;;;8.75;4.53;;;;;;;22.39;41.89;100372.07;1852688;95;29638;-66
2022/09/07 09:48:33;;;;;;;7.78;4.78;;;;;;;22.49;42.33;100363.38;1839332;96;28322;-69
2022/09/07 09:51:41;;;;;;;7.45;4.55;;;;;;;22.59;42.08;100360.06;2008695;86;30107;-66
2022/09/07 09:54:44;;;;;;;7.85;4.58;;;;;;;22.65;42.28;100354.49;2064950;86;31882;-72
2022/09/07 09:58:00;;;;;;;6.25;4.37;;;;;;;22.60;41.76;100341.30;2016721;86;33034;-70
2022/09/07 10:01:05;;;;;;;5.85;4.37;;;;;;;22.56;42.16;100330.33;2064816;86;30452;-70
2022/09/07 10:04:29;;;;;;;11.85;4.30;;;;;;;22.54;41.59;100324.16;2064932;86;28294;-66
2022/09/07 10:07:31;;;;;;;9.33;4.17;;;;;;;22.49;42.12;100326.52;2027363;87;29720;-76
2022/09/07 10:10:32;;;;;;;11.57;4.50;;;;;;;22.46;41.46;100330.91;2027459;87;31070;-77
2022/09/07 10:13:39;;;;;;;7.12;4.10;;;;;;;22.34;41.57;100336.20;1985725;87;33817;-65
2022/09/07 10:16:43;;;;;;;6.03;4.00;;;;;;;22.31;42.11;100345.53;2026811;87;29587;-75
2022/09/07 10:19:44;;;;;;;;;;;;;;;22.27;41.97;100334.07;2027695;87;27607;-80
2022/09/07 10:22:55;;;;;;;11.08;4.85;;;;;;;22.31;42.24;100335.98;2023443;88;27627;-65
2022/09/07 10:25:56;;;;;;;9.48;5.28;;;;;;;22.35;42.42;100331.95;2043137;87;31416;-68
2022/09/07 10:29:18;;;;;;;6.97;4.58;;;;;;;22.34;42.25;100327.49;2043625;87;32547;-68
2022/09/07 10:33:07;;;;;;;7.58;4.85;;;;;;;22.39;42.82;100329.27;2053367;85;29785;-64
2022/09/07 10:36:32;;;;;;;6.67;3.90;;;;;;;22.53;42.52;100336.62;2055802;85;27621;-66
2022/09/07 10:39:42;;;;;;;8.45;4.87;;;;;;;22.57;42.26;100329.32;2051668;85;29870;-65
2022/09/07 10:42:49;;;;;;;9.88;4.28;;;;;;;22.61;42.25;100326.64;2055369;85;31071;-65
2022/09/07 10:46:32;;;;;;;9.18;4.65;;;;;;;22.67;42.57;100327.89;1978361;89;33343;-64
2022/09/07 10:49:51;;;;;;;6.90;4.40;;;;;;;22.80;42.71;100326.16;1978448;89;29550;-61
2022/09/07 10:53:04;;;;;;;7.37;4.10;;;;;;;22.86;42.23;100319.20;1983688;88;27708;-65
2022/09/07 10:56:20;;;;;;;7.87;4.87;;;;;;;22.87;42.28;100315.46;1978990;88;29068;-67
2022/09/07 10:59:45;;;;;;;6.35;3.98;;;;;;;22.91;42.40;100316.35;1983544;88;30875;-65
2022/09/07 11:03:01;;;;;;;8.73;4.05;;;;;;;22.96;42.36;100321.34;1981049;88;33523;-66
2022/09/07 11:06:21;;;;;;;7.83;4.67;;;;;;;22.96;42.06;100321.86;1983774;88;29546;-66
2022/09/07 11:09:41;;;;;;;6.45;4.65;;;;;;;22.95;42.15;100312.78;1977654;88;27767;-67
2022/09/07 11:12:43;;;;;;;7.37;4.70;;;;;;;22.98;42.17;100321.20;1987017;88;29868;-65
2022/09/07 11:15:52;;;;;;;11.38;5.00;;;;;;;23.00;42.45;100317.28;1976693;89;32424;-65
2022/09/07 11:19:06;;;;;;;12.78;4.60;;;;;;;23.01;42.17;100309.44;1982218;88;33563;-65
2022/09/07 11:22:31;;;;;;;7.47;3.98;;;;;;;23.00;41.85;100309.09;1989815;86;30171;-64
2022/09/07 11:26:06;;;;;;;8.58;4.80;;;;;;;22.97;42.10;100301.20;2049458;85;27613;-64
2022/09/07 11:29:22;;;;;;;11.35;5.37;;;;;;;22.98;42.48;100307.54;2056573;85;29910;-65
2022/09/07 11:32:34;;;;;;;11.22;4.62;;;;;;;22.99;42.27;100307.89;2031252;86;31089;-64
2022/09/07 11:35:46;;;;;;;7.25;4.70;;;;;;;23.00;42.57;100299.52;2052296;85;33999;-64
2022/09/07 11:38:54;;;;;;;6.87;3.87;;;;;;;23.09;42.84;100303.19;2009486;87;30717;-64
2022/09/07 11:42:02;;;;;;;7.53;4.15;;;;;;;23.10;42.46;100297.20;2020209;88;27522;-63
2022/09/07 11:45:20;;;;;;;10.68;4.80;;;;;;;23.14;42.77;100293.14;2028542;86;28698;-63
2022/09/07 11:48:39;;;;;;;8.80;4.75;;;;;;;23.19;42.53;100286.70;2053980;86;31057;-64
2022/09/07 11:52:01;;;;;;;7.08;4.45;;;;;;;23.23;42.85;100285.89;2027978;87;34275;-63
2022/09/07 11:55:10;;;;;;;8.23;4.03;;;;;;;23.27;42.73;100288.67;2028109;87;29713;-63
2022/09/07 11:58:39;;;;;;;7.05;4.17;;;;;;;23.27;42.67;100275.84;2027615;84;27754;-63
2022/09/07 12:02:23;;;;;;;5.28;3.72;;;;;;;23.31;42.63;100269.05;2010994;88;29848;-62
2022/09/07 12:06:04;;;;;;;6.97;4.85;;;;;;;23.41;43.25;100272.20;2010528;88;31417;-64
2022/09/07 12:09:34;;;;;;;6.67;4.47;;;;;;;23.50;42.82;100269.85;2011007;88;35199;-63
2022/09/07 12:13:11;;;;;;;9.33;4.45;;;;;;;23.54;43.49;100263.05;1990371;89;29032;-63
2022/09/07 12:16:54;;;;;;;6.87;4.75;;;;;;;23.56;42.91;100265.61;1966236;89;27742;-64
2022/09/07 12:20:16;;;;;;;6.90;4.25;;;;;;;23.58;42.76;100265.78;1950022;89;29902;-63
2022/09/07 12:23:23;;;;;;;6.05;4.15;;;;;;;23.57;42.82;100264.09;1950104;90;31448;-63
2022/09/07 12:26:39;;;;;;;8.65;4.53;;;;;;;23.57;43.30;100257.27;1942037;90;33757;-63
2022/09/07 12:29:40;;;;;;;6.58;4.12;;;;;;;23.60;43.42;100256.06;1956621;90;30268;-63
2022/09/07 12:32:53;;;;;;;6.87;3.67;;;;;;;23.65;43.08;100253.71;1957405;90;27773;-62
2022/09/07 12:35:57;;;;;;;6.87;3.80;;;;;;;23.74;43.20;100255.98;1957513;90;28700;-62
2022/09/07 12:39:31;;;;;;;7.75;3.65;;;;;;;23.87;43.42;100249.53;1999572;88;31099;-63
2022/09/07 12:42:33;;;;;;;8.30;4.17;;;;;;;23.95;43.07;100244.08;1997241;86;33398;-64
2022/09/07 12:45:43;;;;;;;8.45;4.67;;;;;;;24.02;42.58;100240.20;1997391;89;30828;-62
2022/09/07 12:49:08;;;;;;;7.95;4.65;;;;;;;24.04;42.86;100231.31;1998500;89;27804;-62
2022/09/07 12:52:49;;;;;;;5.53;3.50;;;;;;;24.10;42.99;100233.89;2023657;87;28661;-64
2022/09/07 12:56:01;;;;;;;10.65;4.75;;;;;;;24.11;42.82;100231.02;2023705;88;31088;-63
2022/09/07 12:59:34;;;;;;;8.10;4.03;;;;;;;24.14;42.86;100219.39;2023421;88;33848;-63
2022/09/07 13:02:57;;;;;;;6.12;4.40;;;;;;;24.18;42.78;100212.03;2024072;88;29609;-61
2022/09/07 13:06:19;;;;;;;9.98;4.67;;;;;;;24.19;42.74;100212.38;2020939;88;27731;-62
2022/09/07 13:09:32;;;;;;;7.17;4.53;;;;;;;24.21;42.42;100224.02;2052989;86;29812;-62
2022/09/07 13:12:41;;;;;;;8.08;3.98;;;;;;;24.22;42.74;100212.55;2053878;86;31524;-64
2022/09/07 13:15:50;;;;;;;8.38;4.50;;;;;;;24.26;42.27;100208.45;2056730;86;33821;-63
2022/09/07 13:18:52;;;;;;;6.30;4.37;;;;;;;24.26;42.47;100209.30;2056897;86;30860;-62
2022/09/07 13:21:53;;;;;;;10.00;4.10;;;;;;;24.30;42.76;100203.49;2057048;86;27816;-64
2022/09/07 13:24:58;;;;;;;7.17;4.42;;;;;;;24.29;42.80;100199.91;2057429;86;28627;-63
2022/09/07 13:28:28;;;;;;;5.33;3.95;;;;;;;24.28;42.71;100192.72;2058980;86;31093;-63
2022/09/07 13:32:04;;;;;;;6.45;4.20;;;;;;;24.26;42.65;100192.03;2027690;87;33317;-62
2022/09/07 13:35:16;;;;;;;4.92;4.10;;;;;;;24.27;42.78;100193.75;2065363;86;29771;-63
2022/09/07 13:38:17;;;;;;;7.08;4.78;;;;;;;24.31;42.75;100191.02;2059155;86;27694;-62
2022/09/07 13:41:23;;;;;;;5.78;4.35;;;;;;;24.31;42.81;100188.28;2065231;86;29028;-62
2022/09/07 13:44:29;;;;;;;8.00;4.42;;;;;;;24.34;42.96;100188.45;2065306;86;31834;-63
2022/09/07 13:47:56;;;;;;;7.75;4.08;;;;;;;24.38;42.98;100188.46;2065296;86;33006;-63
2022/09/07 13:51:21;;;;;;;8.00;4.42;;;;;;;24.39;42.78;100181.44;2027870;87;30001;-62
2022/09/07 13:54:46;;;;;;;7.30;4.22;;;;;;;24.37;43.10;100187.59;2065041;86;27661;-63
2022/09/07 13:58:14;;;;;;;5.42;3.47;;;;;;;24.39;42.86;100173.22;2065399;86;29059;-62
2022/09/07 14:01:21;;;;;;;4.22;3.83;;;;;;;24.41;43.15;100175.28;2065586;86;32210;-62
2022/09/07 14:04:38;;;;;;;6.85;4.58;;;;;;;24.40;42.84;100177.67;2063947;86;33854;-62
2022/09/07 14:07:45;;;;;;;8.05;5.08;;;;;;;24.42;43.21;100174.25;2065014;86;30460;-62
2022/09/07 14:10:47;;;;;;;7.42;4.10;;;;;;;24.45;43.35;100184.53;2065450;86;27645;-62
2022/09/07 14:14:13;;;;;;;5.28;4.30;;;;;;;24.47;43.12;100179.22;2064907;86;30771;-62
2022/09/07 14:17:15;;;;;;;;;;;;;;;24.45;43.17;100174.95;2067527;86;32273;-62
2022/09/07 14:20:20;;;;;;;9.48;4.37;;;;;;;24.44;43.23;100168.59;2038692;86;33039;-63
2022/09/07 14:23:29;;;;;;;10.03;4.42;;;;;;;24.44;43.21;100169.96;2064366;86;30005;-63
2022/09/07 14:26:30;;;;;;;3.90;3.45;;;;;;;24.43;43.24;100154.06;2053724;85;27812;-62
2022/09/07 14:29:34;;;;;;;6.25;4.67;;;;;;;24.42;43.34;100162.42;2049340;86;29329;-62
2022/09/07 14:32:36;;;;;;;7.60;4.08;;;;;;;24.42;43.24;100161.93;2030713;87;31075;-62
2022/09/07 14:35:38;;;;;;;6.33;4.75;;;;;;;24.43;43.49;100157.30;2048781;86;33023;-62
2022/09/07 14:38:40;;;;;;;4.92;4.42;;;;;;;24.43;43.44;100155.43;2031335;87;30114;-62